Global Andes — 3EUV2 — position and weather

sailwx.info

Track history (hours):
 
Tides and Currents Weather Stations Pressure Air Temp Water Temp Dewpoint Dewpoint Depression Visibility Wind Speed Wind Dir Waves Ship Positions

Global Andes

Last reported at 2018-Jun-14 16:59 UTC. Time now 2018-Jun-18 09:21 UTC.
Position N 24°31' E 118°05'.

Length 183 m; draft 10.6 m.

Type: Cargo ship. MMSI: 355026000.

Date/timePositionNaut miles runAvg speedWind from/ knotsBaromVisibWave heightAir tempDewpointWater temp
2018-Jun-14 16:59N 24°31' E 118°05'4 7.5
2018-Jun-14 16:30N 24°28' E 118°03'5 9.9
2018-Jun-14 16:00N 24°24' E 118°06'510.8
2018-Jun-14 15:30N 24°20' E 118°11'2 3.3
2018-Jun-14 14:55N 24°19' E 118°12'0 0.0
2018-Jun-14 14:28N 24°19' E 118°12'0 0.1
2018-Jun-14 13:58N 24°19' E 118°13'0 0.0
2018-Jun-14 13:28N 24°19' E 118°13'0 0.1
2018-Jun-14 12:58N 24°19' E 118°13'0 0.2
2018-Jun-14 12:28N 24°19' E 118°12'0 0.4
2018-Jun-14 11:58N 24°19' E 118°13'0 0.1
2018-Jun-14 11:28N 24°19' E 118°13'0 0.1
2018-Jun-14 10:58N 24°19' E 118°13'0 0.0
2018-Jun-14 10:28N 24°19' E 118°13'0 0.0
2018-Jun-14 09:58N 24°19' E 118°13'0 0.0
2018-Jun-14 09:28N 24°19' E 118°13'0 0.1
2018-Jun-14 08:58N 24°19' E 118°13'0 0.0
2018-Jun-14 08:28N 24°19' E 118°13'0 0.1
2018-Jun-14 07:58N 24°19' E 118°13'0 0.0
2018-Jun-14 07:28N 24°19' E 118°13'0 0.0
2018-Jun-14 06:58N 24°19' E 118°13'0 0.1
2018-Jun-14 06:25N 24°19' E 118°13'0 0.0
2018-Jun-14 05:55N 24°19' E 118°13'0 0.0
2018-Jun-14 05:28N 24°19' E 118°13'0 0.1
2018-Jun-14 04:58N 24°19' E 118°13'0 0.1
2018-Jun-14 04:28N 24°19' E 118°13'0 0.0
2018-Jun-14 03:58N 24°19' E 118°13'0 0.1
2018-Jun-14 03:28N 24°19' E 118°13'0 0.0
2018-Jun-14 02:58N 24°19' E 118°13'0 0.1
2018-Jun-14 02:28N 24°19' E 118°13'0 0.0
2018-Jun-14 01:52N 24°19' E 118°13'0 0.1
2018-Jun-14 01:28N 24°19' E 118°13'0 0.0
2018-Jun-14 00:58N 24°19' E 118°13'0 0.1
2018-Jun-14 00:28N 24°19' E 118°13'0 0.3
2018-Jun-13 23:55N 24°19' E 118°13'0 0.1
2018-Jun-13 23:28N 24°19' E 118°13'0 0.0
2018-Jun-13 22:52N 24°19' E 118°13'0 0.1
2018-Jun-13 22:28N 24°19' E 118°13'0 0.1
2018-Jun-13 21:58N 24°19' E 118°13'0 0.1
2018-Jun-13 21:28N 24°19' E 118°13'0 0.0
2018-Jun-13 20:58N 24°19' E 118°13'0 0.0
2018-Jun-13 20:28N 24°19' E 118°13'0 0.0
2018-Jun-13 19:58N 24°19' E 118°13'0 0.0
2018-Jun-13 19:28N 24°19' E 118°13'0 0.0
2018-Jun-13 18:58N 24°19' E 118°13'0 0.0
2018-Jun-13 18:28N 24°19' E 118°13'0 0.1
2018-Jun-13 17:58N 24°19' E 118°13'0 0.0
2018-Jun-13 17:28N 24°19' E 118°13'0 0.0
2018-Jun-13 16:58N 24°19' E 118°13'0 0.1
2018-Jun-13 16:28N 24°19' E 118°13'0 0.1
2018-Jun-13 15:58N 24°19' E 118°13'0 0.0
2018-Jun-13 15:28N 24°19' E 118°13'0 0.0
2018-Jun-13 14:58N 24°19' E 118°13'0 0.0
2018-Jun-13 14:28N 24°19' E 118°13'0 0.0
2018-Jun-13 13:58N 24°19' E 118°13'0 0.0
2018-Jun-13 13:28N 24°19' E 118°13'0 0.1
2018-Jun-13 12:58N 24°19' E 118°13'0 0.0
2018-Jun-13 12:28N 24°19' E 118°13'0 0.1
2018-Jun-13 11:58N 24°19' E 118°13'0 0.0
2018-Jun-13 11:28N 24°19' E 118°13'0 0.1
2018-Jun-13 10:58N 24°19' E 118°13'0 0.1
2018-Jun-13 10:28N 24°19' E 118°13'0 0.1
2018-Jun-13 09:58N 24°19' E 118°13'0 0.4
2018-Jun-13 09:28N 24°19' E 118°13'0 0.6
2018-Jun-13 09:00N 24°20' E 118°12'1 2.4
2018-Jun-13 08:30N 24°20' E 118°11'0 0.5
2018-Jun-13 08:00N 24°20' E 118°11'1 1.6
2018-Jun-13 07:30N 24°20' E 118°11'4 7.1
2018-Jun-13 07:00N 24°16' E 118°11'5 9.0
2018-Jun-13 06:29N 24°13' E 118°15'5 9.8
2018-Jun-13 06:00N 24°11' E 118°20'611.9
2018-Jun-13 05:30N 24°12' E 118°26'712.2
2018-Jun-13 04:58N 24°14' E 118°34'612.4
2018-Jun-13 04:30N 24°15' E 118°40'12311.2
2018-Jun-12 17:31N 25°42' E 120°16'011.8
2018-Jun-12 17:30N 25°42' E 120°16'  
Track history (hours):
 
Tides and Currents Weather Stations Pressure Air Temp Water Temp Dewpoint Dewpoint Depression Visibility Wind Speed Wind Dir Waves Ship Positions

Global Andes

Last reported at 2018-Jun-14 16:59 UTC. Time now 2018-Jun-18 09:21 UTC.
Position N 24°31' E 118°05'.

Length 183 m; draft 10.6 m.

Type: Cargo ship. MMSI: 355026000.

Date/timePositionNaut miles runAvg speedWind from/ knotsBaromVisibWave heightAir tempDewpointWater temp
2018-Jun-14 16:59N 24°31' E 118°05'4 7.5
2018-Jun-14 16:30N 24°28' E 118°03'5 9.9
2018-Jun-14 16:00N 24°24' E 118°06'510.8
2018-Jun-14 15:30N 24°20' E 118°11'2 3.3
2018-Jun-14 14:55N 24°19' E 118°12'0 0.0
2018-Jun-14 14:28N 24°19' E 118°12'0 0.1
2018-Jun-14 13:58N 24°19' E 118°13'0 0.0
2018-Jun-14 13:28N 24°19' E 118°13'0 0.1
2018-Jun-14 12:58N 24°19' E 118°13'0 0.2
2018-Jun-14 12:28N 24°19' E 118°12'0 0.4
2018-Jun-14 11:58N 24°19' E 118°13'0 0.1
2018-Jun-14 11:28N 24°19' E 118°13'0 0.1
2018-Jun-14 10:58N 24°19' E 118°13'0 0.0
2018-Jun-14 10:28N 24°19' E 118°13'0 0.0
2018-Jun-14 09:58N 24°19' E 118°13'0 0.0
2018-Jun-14 09:28N 24°19' E 118°13'0 0.1
2018-Jun-14 08:58N 24°19' E 118°13'0 0.0
2018-Jun-14 08:28N 24°19' E 118°13'0 0.1
2018-Jun-14 07:58N 24°19' E 118°13'0 0.0
2018-Jun-14 07:28N 24°19' E 118°13'0 0.0
2018-Jun-14 06:58N 24°19' E 118°13'0 0.1
2018-Jun-14 06:25N 24°19' E 118°13'0 0.0
2018-Jun-14 05:55N 24°19' E 118°13'0 0.0
2018-Jun-14 05:28N 24°19' E 118°13'0 0.1
2018-Jun-14 04:58N 24°19' E 118°13'0 0.1
2018-Jun-14 04:28N 24°19' E 118°13'0 0.0
2018-Jun-14 03:58N 24°19' E 118°13'0 0.1
2018-Jun-14 03:28N 24°19' E 118°13'0 0.0
2018-Jun-14 02:58N 24°19' E 118°13'0 0.1
2018-Jun-14 02:28N 24°19' E 118°13'0 0.0
2018-Jun-14 01:52N 24°19' E 118°13'0 0.1
2018-Jun-14 01:28N 24°19' E 118°13'0 0.0
2018-Jun-14 00:58N 24°19' E 118°13'0 0.1
2018-Jun-14 00:28N 24°19' E 118°13'0 0.3
2018-Jun-13 23:55N 24°19' E 118°13'0 0.1
2018-Jun-13 23:28N 24°19' E 118°13'0 0.0
2018-Jun-13 22:52N 24°19' E 118°13'0 0.1
2018-Jun-13 22:28N 24°19' E 118°13'0 0.1
2018-Jun-13 21:58N 24°19' E 118°13'0 0.1
2018-Jun-13 21:28N 24°19' E 118°13'0 0.0
2018-Jun-13 20:58N 24°19' E 118°13'0 0.0
2018-Jun-13 20:28N 24°19' E 118°13'0 0.0
2018-Jun-13 19:58N 24°19' E 118°13'0 0.0
2018-Jun-13 19:28N 24°19' E 118°13'0 0.0
2018-Jun-13 18:58N 24°19' E 118°13'0 0.0
2018-Jun-13 18:28N 24°19' E 118°13'0 0.1
2018-Jun-13 17:58N 24°19' E 118°13'0 0.0
2018-Jun-13 17:28N 24°19' E 118°13'0 0.0
2018-Jun-13 16:58N 24°19' E 118°13'0 0.1
2018-Jun-13 16:28N 24°19' E 118°13'0 0.1
2018-Jun-13 15:58N 24°19' E 118°13'0 0.0
2018-Jun-13 15:28N 24°19' E 118°13'0 0.0
2018-Jun-13 14:58N 24°19' E 118°13'0 0.0
2018-Jun-13 14:28N 24°19' E 118°13'0 0.0
2018-Jun-13 13:58N 24°19' E 118°13'0 0.0
2018-Jun-13 13:28N 24°19' E 118°13'0 0.1
2018-Jun-13 12:58N 24°19' E 118°13'0 0.0
2018-Jun-13 12:28N 24°19' E 118°13'0 0.1
2018-Jun-13 11:58N 24°19' E 118°13'0 0.0
2018-Jun-13 11:28N 24°19' E 118°13'0 0.1
2018-Jun-13 10:58N 24°19' E 118°13'0 0.1
2018-Jun-13 10:28N 24°19' E 118°13'0 0.1
2018-Jun-13 09:58N 24°19' E 118°13'0 0.4
2018-Jun-13 09:28N 24°19' E 118°13'0 0.6
2018-Jun-13 09:00N 24°20' E 118°12'1 2.4
2018-Jun-13 08:30N 24°20' E 118°11'0 0.5
2018-Jun-13 08:00N 24°20' E 118°11'1 1.6
2018-Jun-13 07:30N 24°20' E 118°11'4 7.1
2018-Jun-13 07:00N 24°16' E 118°11'5 9.0
2018-Jun-13 06:29N 24°13' E 118°15'5 9.8
2018-Jun-13 06:00N 24°11' E 118°20'611.9
2018-Jun-13 05:30N 24°12' E 118°26'712.2
2018-Jun-13 04:58N 24°14' E 118°34'612.4
2018-Jun-13 04:30N 24°15' E 118°40'12311.2
2018-Jun-12 17:31N 25°42' E 120°16'011.8
2018-Jun-12 17:30N 25°42' E 120°16'  

Dump ship's entire track history